sensor_id;sensor_type;location;lat;lon;timestamp;pressure;altitude;pressure_sealevel;temperature;humidity
7376;BME280;3728;42.266;24.944;2023-04-05T00:01:00;98869.72;;;6.14;87.42
7376;BME280;3728;42.266;24.944;2023-04-05T00:03:28;98870.78;;;6.41;87.94
7376;BME280;3728;42.266;24.944;2023-04-05T00:05:56;98866.75;;;6.35;86.39
7376;BME280;3728;42.266;24.944;2023-04-05T00:08:23;98874.09;;;6.60;86.51
7376;BME280;3728;42.266;24.944;2023-04-05T00:10:52;98874.66;;;6.30;87.03
7376;BME280;3728;42.266;24.944;2023-04-05T00:13:20;98871.69;;;6.50;87.07
7376;BME280;3728;42.266;24.944;2023-04-05T00:15:48;98875.81;;;6.51;86.84
7376;BME280;3728;42.266;24.944;2023-04-05T00:18:16;98870.06;;;6.54;86.44
7376;BME280;3728;42.266;24.944;2023-04-05T00:20:50;98869.47;;;6.57;86.20
7376;BME280;3728;42.266;24.944;2023-04-05T00:23:18;98871.97;;;6.48;86.91
7376;BME280;3728;42.266;24.944;2023-04-05T00:25:47;98864.84;;;6.40;87.41
7376;BME280;3728;42.266;24.944;2023-04-05T00:28:14;98870.13;;;6.62;85.94
7376;BME280;3728;42.266;24.944;2023-04-05T00:30:42;98873.34;;;6.59;85.24
7376;BME280;3728;42.266;24.944;2023-04-05T00:33:11;98875.81;;;6.64;85.30
7376;BME280;3728;42.266;24.944;2023-04-05T00:35:39;98883.84;;;6.54;86.96
7376;BME280;3728;42.266;24.944;2023-04-05T00:38:06;98885.66;;;6.54;86.72
7376;BME280;3728;42.266;24.944;2023-04-05T00:40:35;98883.44;;;6.47;87.26
7376;BME280;3728;42.266;24.944;2023-04-05T00:43:02;98890.16;;;6.48;87.39
7376;BME280;3728;42.266;24.944;2023-04-05T00:45:30;98890.00;;;6.45;86.76
7376;BME280;3728;42.266;24.944;2023-04-05T00:47:58;98897.31;;;6.83;85.02
7376;BME280;3728;42.266;24.944;2023-04-05T00:50:27;98897.41;;;6.78;84.93
7376;BME280;3728;42.266;24.944;2023-04-05T00:52:58;98893.16;;;6.42;86.26
7376;BME280;3728;42.266;24.944;2023-04-05T00:55:26;98887.94;;;6.28;86.50
7376;BME280;3728;42.266;24.944;2023-04-05T00:57:54;98899.22;;;6.51;85.51
7376;BME280;3728;42.266;24.944;2023-04-05T01:00:22;98902.88;;;6.36;86.38
7376;BME280;3728;42.266;24.944;2023-04-05T01:02:54;98900.56;;;6.35;85.68
7376;BME280;3728;42.266;24.944;2023-04-05T01:05:43;98897.97;;;6.35;85.04
7376;BME280;3728;42.266;24.944;2023-04-05T01:11:05;98905.13;;;6.43;86.47
7376;BME280;3728;42.266;24.944;2023-04-05T01:13:36;98897.97;;;6.35;87.90
7376;BME280;3728;42.266;24.944;2023-04-05T01:16:03;98896.81;;;6.41;87.07
7376;BME280;3728;42.266;24.944;2023-04-05T01:18:31;98902.91;;;6.50;86.06
7376;BME280;3728;42.266;24.944;2023-04-05T01:27:10;98906.41;;;6.27;87.48
7376;BME280;3728;42.266;24.944;2023-04-05T01:29:50;98910.78;;;6.31;89.10
7376;BME280;3728;42.266;24.944;2023-04-05T01:32:41;98909.00;;;6.27;87.32
7376;BME280;3728;42.266;24.944;2023-04-05T01:35:42;98909.00;;;6.27;87.76
7376;BME280;3728;42.266;24.944;2023-04-05T01:38:24;98904.50;;;6.46;85.28
7376;BME280;3728;42.266;24.944;2023-04-05T01:40:53;98910.78;;;6.45;84.67
7376;BME280;3728;42.266;24.944;2023-04-05T01:43:21;98917.25;;;6.47;85.45
7376;BME280;3728;42.266;24.944;2023-04-05T01:45:49;98911.75;;;6.62;84.78
7376;BME280;3728;42.266;24.944;2023-04-05T01:48:17;98921.09;;;6.50;85.28
7376;BME280;3728;42.266;24.944;2023-04-05T01:50:44;98918.75;;;6.35;86.29
7376;BME280;3728;42.266;24.944;2023-04-05T01:53:12;98913.69;;;6.57;85.73
7376;BME280;3728;42.266;24.944;2023-04-05T01:55:40;98922.06;;;6.40;86.34
7376;BME280;3728;42.266;24.944;2023-04-05T01:58:07;98923.66;;;6.22;85.83
7376;BME280;3728;42.266;24.944;2023-04-05T02:00:36;98927.19;;;6.45;86.10
7376;BME280;3728;42.266;24.944;2023-04-05T02:03:03;98922.06;;;6.67;84.23
7376;BME280;3728;42.266;24.944;2023-04-05T02:05:32;98935.38;;;6.93;83.02
7376;BME280;3728;42.266;24.944;2023-04-05T02:07:59;98924.28;;;6.47;83.79
7376;BME280;3728;42.266;24.944;2023-04-05T02:10:26;98930.56;;;6.59;83.82
7376;BME280;3728;42.266;24.944;2023-04-05T02:12:54;98934.59;;;6.38;84.90
7376;BME280;3728;42.266;24.944;2023-04-05T02:15:22;98927.97;;;6.27;85.57
7376;BME280;3728;42.266;24.944;2023-04-05T02:17:49;98928.56;;;6.24;84.98
7376;BME280;3728;42.266;24.944;2023-04-05T02:20:19;98936.38;;;6.05;87.40
7376;BME280;3728;42.266;24.944;2023-04-05T02:22:47;98934.97;;;6.13;86.99
7376;BME280;3728;42.266;24.944;2023-04-05T02:25:14;98936.44;;;6.19;86.59
7376;BME280;3728;42.266;24.944;2023-04-05T02:27:42;98938.31;;;6.32;85.89
7376;BME280;3728;42.266;24.944;2023-04-05T02:30:10;98938.56;;;6.17;86.37
7376;BME280;3728;42.266;24.944;2023-04-05T02:32:41;98939.81;;;6.19;86.37
7376;BME280;3728;42.266;24.944;2023-04-05T02:35:09;98943.91;;;6.07;86.54
7376;BME280;3728;42.266;24.944;2023-04-05T02:37:37;98942.19;;;6.02;87.10
7376;BME280;3728;42.266;24.944;2023-04-05T02:40:09;98939.34;;;5.80;87.08
7376;BME280;3728;42.266;24.944;2023-04-05T02:42:39;98940.75;;;5.91;87.47
7376;BME280;3728;42.266;24.944;2023-04-05T02:45:07;98940.56;;;5.88;87.54
7376;BME280;3728;42.266;24.944;2023-04-05T02:47:35;98948.38;;;5.88;87.05
7376;BME280;3728;42.266;24.944;2023-04-05T02:50:03;98945.88;;;5.96;87.65
7376;BME280;3728;42.266;24.944;2023-04-05T02:52:36;98947.81;;;5.91;86.69
7376;BME280;3728;42.266;24.944;2023-04-05T02:55:05;98955.59;;;5.91;87.72
7376;BME280;3728;42.266;24.944;2023-04-05T02:57:34;98946.84;;;5.82;87.51
7376;BME280;3728;42.266;24.944;2023-04-05T03:00:17;98957.53;;;5.80;87.88
7376;BME280;3728;42.266;24.944;2023-04-05T03:02:45;98958.03;;;5.64;89.21
7376;BME280;3728;42.266;24.944;2023-04-05T03:05:13;98960.91;;;5.81;87.50
7376;BME280;3728;42.266;24.944;2023-04-05T03:07:47;98967.22;;;5.75;87.98
7376;BME280;3728;42.266;24.944;2023-04-05T03:10:22;98955.28;;;5.74;87.75
7376;BME280;3728;42.266;24.944;2023-04-05T03:12:57;98965.81;;;5.82;88.28
7376;BME280;3728;42.266;24.944;2023-04-05T03:15:26;98962.63;;;5.90;86.83
7376;BME280;3728;42.266;24.944;2023-04-05T03:17:55;98963.03;;;5.97;87.75
7376;BME280;3728;42.266;24.944;2023-04-05T03:20:24;98969.53;;;6.13;87.17
7376;BME280;3728;42.266;24.944;2023-04-05T03:22:56;98959.31;;;5.85;86.43
7376;BME280;3728;42.266;24.944;2023-04-05T03:25:28;98973.13;;;5.80;88.13
7376;BME280;3728;42.266;24.944;2023-04-05T03:27:59;98962.81;;;5.94;87.13
7376;BME280;3728;42.266;24.944;2023-04-05T03:30:31;98960.69;;;5.77;86.24
7376;BME280;3728;42.266;24.944;2023-04-05T03:33:11;98961.47;;;5.59;88.23
7376;BME280;3728;42.266;24.944;2023-04-05T03:35:44;98962.84;;;5.51;87.86
7376;BME280;3728;42.266;24.944;2023-04-05T03:38:14;98964.41;;;5.71;86.63
7376;BME280;3728;42.266;24.944;2023-04-05T03:41:02;98968.41;;;5.82;86.96
7376;BME280;3728;42.266;24.944;2023-04-05T03:43:30;98972.94;;;5.95;86.69
7376;BME280;3728;42.266;24.944;2023-04-05T03:46:04;98979.75;;;5.91;86.74
7376;BME280;3728;42.266;24.944;2023-04-05T03:48:37;98978.41;;;5.94;87.17
7376;BME280;3728;42.266;24.944;2023-04-05T03:51:04;98987.94;;;5.98;86.82
7376;BME280;3728;42.266;24.944;2023-04-05T03:53:33;98985.56;;;6.02;85.45
7376;BME280;3728;42.266;24.944;2023-04-05T03:56:01;98995.91;;;6.07;85.39
7376;BME280;3728;42.266;24.944;2023-04-05T03:58:43;98989.41;;;6.23;84.10
7376;BME280;3728;42.266;24.944;2023-04-05T04:01:11;99000.47;;;5.96;85.80
7376;BME280;3728;42.266;24.944;2023-04-05T04:03:39;99002.56;;;5.94;86.57
7376;BME280;3728;42.266;24.944;2023-04-05T04:06:07;99000.44;;;5.78;87.79
7376;BME280;3728;42.266;24.944;2023-04-05T04:08:37;99008.06;;;6.11;85.56
7376;BME280;3728;42.266;24.944;2023-04-05T04:11:05;99003.38;;;6.27;84.61
7376;BME280;3728;42.266;24.944;2023-04-05T04:13:37;99008.34;;;6.42;84.50
7376;BME280;3728;42.266;24.944;2023-04-05T04:16:39;99010.66;;;6.44;84.61
7376;BME280;3728;42.266;24.944;2023-04-05T04:19:29;99011.88;;;6.33;84.35
7376;BME280;3728;42.266;24.944;2023-04-05T04:22:26;99012.84;;;6.04;84.89
7376;BME280;3728;42.266;24.944;2023-04-05T04:25:24;99012.97;;;5.94;85.61
7376;BME280;3728;42.266;24.944;2023-04-05T04:28:35;99016.63;;;6.12;85.86
7376;BME280;3728;42.266;24.944;2023-04-05T04:31:38;99022.09;;;6.10;84.80
7376;BME280;3728;42.266;24.944;2023-04-05T04:34:04;99024.28;;;5.85;86.74
7376;BME280;3728;42.266;24.944;2023-04-05T04:36:43;99019.72;;;5.95;85.52
7376;BME280;3728;42.266;24.944;2023-04-05T04:39:29;99018.81;;;6.05;85.39
7376;BME280;3728;42.266;24.944;2023-04-05T04:42:29;99025.81;;;6.23;84.72
7376;BME280;3728;42.266;24.944;2023-04-05T04:45:32;99023.00;;;6.01;85.43
7376;BME280;3728;42.266;24.944;2023-04-05T04:48:18;99028.78;;;6.16;85.55
7376;BME280;3728;42.266;24.944;2023-04-05T04:51:09;99026.00;;;6.27;84.26
7376;BME280;3728;42.266;24.944;2023-04-05T04:53:35;99030.06;;;6.00;84.39
7376;BME280;3728;42.266;24.944;2023-04-05T04:56:08;99035.25;;;6.00;84.98
7376;BME280;3728;42.266;24.944;2023-04-05T04:58:35;99034.94;;;5.83;86.54
7376;BME280;3728;42.266;24.944;2023-04-05T05:01:08;99037.88;;;5.77;85.95
7376;BME280;3728;42.266;24.944;2023-04-05T05:03:36;99036.53;;;5.79;85.69
7376;BME280;3728;42.266;24.944;2023-04-05T05:06:04;99047.41;;;6.05;85.39
7376;BME280;3728;42.266;24.944;2023-04-05T05:08:33;99050.06;;;6.18;85.12
7376;BME280;3728;42.266;24.944;2023-04-05T05:11:06;99043.72;;;6.25;84.14
7376;BME280;3728;42.266;24.944;2023-04-05T05:13:33;99042.13;;;6.29;84.28
7376;BME280;3728;42.266;24.944;2023-04-05T05:16:02;99043.50;;;6.40;85.40
7376;BME280;3728;42.266;24.944;2023-04-05T05:18:31;99050.50;;;6.58;83.61
7376;BME280;3728;42.266;24.944;2023-04-05T05:20:58;99048.53;;;6.68;81.87
7376;BME280;3728;42.266;24.944;2023-04-05T05:23:26;99051.13;;;6.68;82.38
7376;BME280;3728;42.266;24.944;2023-04-05T05:25:59;99050.63;;;6.66;81.68
7376;BME280;3728;42.266;24.944;2023-04-05T05:28:27;99049.09;;;6.79;81.08
7376;BME280;3728;42.266;24.944;2023-04-05T05:30:54;99050.38;;;6.95;80.48
7376;BME280;3728;42.266;24.944;2023-04-05T05:33:22;99054.34;;;6.93;80.09
7376;BME280;3728;42.266;24.944;2023-04-05T05:35:50;99067.09;;;6.94;80.22
7376;BME280;3728;42.266;24.944;2023-04-05T05:38:18;99055.50;;;7.00;80.17
7376;BME280;3728;42.266;24.944;2023-04-05T05:40:47;99056.19;;;6.92;80.72
7376;BME280;3728;42.266;24.944;2023-04-05T05:43:14;99061.59;;;7.09;78.83
7376;BME280;3728;42.266;24.944;2023-04-05T05:45:45;99063.63;;;6.99;81.09
7376;BME280;3728;42.266;24.944;2023-04-05T05:48:13;99061.78;;;6.99;81.12
7376;BME280;3728;42.266;24.944;2023-04-05T05:50:43;99067.88;;;7.08;80.23
7376;BME280;3728;42.266;24.944;2023-04-05T05:53:13;99072.00;;;6.96;81.81
7376;BME280;3728;42.266;24.944;2023-04-05T05:55:40;99075.22;;;7.06;81.89
7376;BME280;3728;42.266;24.944;2023-04-05T05:58:08;99070.31;;;7.18;80.01
7376;BME280;3728;42.266;24.944;2023-04-05T06:00:36;99072.41;;;7.16;80.26
7376;BME280;3728;42.266;24.944;2023-04-05T06:03:04;99073.47;;;7.42;78.56
7376;BME280;3728;42.266;24.944;2023-04-05T06:05:32;99064.03;;;7.60;79.68
7376;BME280;3728;42.266;24.944;2023-04-05T06:08:00;99068.06;;;7.66;80.04
7376;BME280;3728;42.266;24.944;2023-04-05T06:10:29;99070.88;;;7.70;78.87
7376;BME280;3728;42.266;24.944;2023-04-05T06:12:57;99069.03;;;7.70;77.63
7376;BME280;3728;42.266;24.944;2023-04-05T06:15:24;99066.97;;;7.94;80.04
7376;BME280;3728;42.266;24.944;2023-04-05T06:17:52;99074.88;;;8.03;78.02
7376;BME280;3728;42.266;24.944;2023-04-05T06:20:20;99071.19;;;8.04;78.19
7376;BME280;3728;42.266;24.944;2023-04-05T06:22:47;99080.34;;;8.15;77.85
7376;BME280;3728;42.266;24.944;2023-04-05T06:25:15;99073.59;;;8.14;79.22
7376;BME280;3728;42.266;24.944;2023-04-05T06:27:43;99085.97;;;8.08;77.20
7376;BME280;3728;42.266;24.944;2023-04-05T06:30:11;99088.91;;;7.93;76.08
7376;BME280;3728;42.266;24.944;2023-04-05T06:32:41;99087.28;;;7.84;77.91
7376;BME280;3728;42.266;24.944;2023-04-05T06:35:11;99091.88;;;7.87;76.98
7376;BME280;3728;42.266;24.944;2023-04-05T06:37:39;99092.59;;;7.79;79.35
7376;BME280;3728;42.266;24.944;2023-04-05T06:40:08;99096.25;;;7.78;78.81
7376;BME280;3728;42.266;24.944;2023-04-05T06:42:36;99100.84;;;8.08;77.02
7376;BME280;3728;42.266;24.944;2023-04-05T06:45:06;99102.53;;;7.90;77.76
7376;BME280;3728;42.266;24.944;2023-04-05T06:47:36;99095.09;;;7.84;79.38
7376;BME280;3728;42.266;24.944;2023-04-05T06:50:07;99100.47;;;8.01;77.45
7376;BME280;3728;42.266;24.944;2023-04-05T06:52:35;99110.19;;;8.22;77.72
7376;BME280;3728;42.266;24.944;2023-04-05T06:55:03;99101.22;;;8.29;75.53
7376;BME280;3728;42.266;24.944;2023-04-05T06:57:31;99106.91;;;8.53;74.88
7376;BME280;3728;42.266;24.944;2023-04-05T06:59:59;99117.19;;;8.49;77.02
7376;BME280;3728;42.266;24.944;2023-04-05T07:02:27;99123.03;;;8.68;75.59
7376;BME280;3728;42.266;24.944;2023-04-05T07:04:54;99121.06;;;8.96;75.66
7376;BME280;3728;42.266;24.944;2023-04-05T07:07:29;99118.69;;;8.86;76.06
7376;BME280;3728;42.266;24.944;2023-04-05T07:09:58;99130.00;;;9.04;75.77
7376;BME280;3728;42.266;24.944;2023-04-05T07:12:26;99131.66;;;9.22;74.24
7376;BME280;3728;42.266;24.944;2023-04-05T07:14:53;99129.22;;;9.25;74.26
7376;BME280;3728;42.266;24.944;2023-04-05T07:17:21;99139.66;;;9.25;75.81
7376;BME280;3728;42.266;24.944;2023-04-05T07:19:48;99134.66;;;9.07;74.28
7376;BME280;3728;42.266;24.944;2023-04-05T07:22:16;99140.00;;;9.32;72.88
7376;BME280;3728;42.266;24.944;2023-04-05T07:24:44;99140.47;;;9.34;75.75
7376;BME280;3728;42.266;24.944;2023-04-05T07:27:12;99135.81;;;9.62;73.93
7376;BME280;3728;42.266;24.944;2023-04-05T07:29:40;99137.97;;;9.60;73.66
7376;BME280;3728;42.266;24.944;2023-04-05T07:32:11;99134.91;;;9.67;72.83
7376;BME280;3728;42.266;24.944;2023-04-05T07:34:38;99149.94;;;10.00;72.12
7376;BME280;3728;42.266;24.944;2023-04-05T07:37:07;99144.72;;;9.61;72.40
7376;BME280;3728;42.266;24.944;2023-04-05T07:39:34;99143.91;;;9.43;74.50
7376;BME280;3728;42.266;24.944;2023-04-05T07:42:02;99145.22;;;9.63;74.14
7376;BME280;3728;42.266;24.944;2023-04-05T07:44:30;99153.41;;;9.70;74.18
7376;BME280;3728;42.266;24.944;2023-04-05T07:46:57;99151.13;;;9.77;73.50
7376;BME280;3728;42.266;24.944;2023-04-05T07:49:25;99156.16;;;9.74;73.14
7376;BME280;3728;42.266;24.944;2023-04-05T07:51:54;99159.88;;;9.81;72.67
7376;BME280;3728;42.266;24.944;2023-04-05T07:54:24;99169.56;;;9.81;73.26
7376;BME280;3728;42.266;24.944;2023-04-05T07:56:52;99172.97;;;9.81;73.20
7376;BME280;3728;42.266;24.944;2023-04-05T07:59:23;99169.22;;;9.65;70.30
7376;BME280;3728;42.266;24.944;2023-04-05T08:01:51;99170.75;;;9.66;72.29
7376;BME280;3728;42.266;24.944;2023-04-05T08:04:24;99167.84;;;9.68;74.27
7376;BME280;3728;42.266;24.944;2023-04-05T08:06:52;99164.03;;;9.82;72.57
7376;BME280;3728;42.266;24.944;2023-04-05T08:09:19;99159.53;;;9.66;73.57
7376;BME280;3728;42.266;24.944;2023-04-05T08:11:47;99163.69;;;9.75;72.61
7376;BME280;3728;42.266;24.944;2023-04-05T08:14:14;99171.72;;;9.79;72.18
7376;BME280;3728;42.266;24.944;2023-04-05T08:16:42;99171.38;;;9.63;73.13
7376;BME280;3728;42.266;24.944;2023-04-05T08:19:10;99162.44;;;9.64;72.78
7376;BME280;3728;42.266;24.944;2023-04-05T08:21:41;99162.78;;;9.71;71.94
7376;BME280;3728;42.266;24.944;2023-04-05T08:24:08;99177.44;;;9.89;72.48
7376;BME280;3728;42.266;24.944;2023-04-05T08:26:36;99163.75;;;9.92;70.91
7376;BME280;3728;42.266;24.944;2023-04-05T08:29:03;99173.56;;;9.78;70.69
7376;BME280;3728;42.266;24.944;2023-04-05T08:31:30;99168.34;;;9.78;72.47
7376;BME280;3728;42.266;24.944;2023-04-05T08:33:59;99173.72;;;10.21;71.98
7376;BME280;3728;42.266;24.944;2023-04-05T08:36:27;99168.47;;;10.12;71.39
7376;BME280;3728;42.266;24.944;2023-04-05T08:38:54;99173.56;;;10.26;72.43
7376;BME280;3728;42.266;24.944;2023-04-05T08:41:23;99177.56;;;10.23;70.66
7376;BME280;3728;42.266;24.944;2023-04-05T08:43:59;99185.94;;;10.03;72.31
7376;BME280;3728;42.266;24.944;2023-04-05T08:46:29;99185.88;;;10.17;71.14
7376;BME280;3728;42.266;24.944;2023-04-05T08:48:59;99181.38;;;10.17;71.00
7376;BME280;3728;42.266;24.944;2023-04-05T08:51:37;99186.84;;;9.99;71.07
7376;BME280;3728;42.266;24.944;2023-04-05T08:54:05;99179.78;;;9.91;73.12
7376;BME280;3728;42.266;24.944;2023-04-05T08:56:34;99183.41;;;10.12;72.83
7376;BME280;3728;42.266;24.944;2023-04-05T08:59:06;99190.34;;;10.16;70.69
7376;BME280;3728;42.266;24.944;2023-04-05T09:01:38;99186.63;;;10.17;71.11
7376;BME280;3728;42.266;24.944;2023-04-05T09:04:14;99186.06;;;10.38;72.78
7376;BME280;3728;42.266;24.944;2023-04-05T09:06:48;99178.06;;;10.51;69.51
7376;BME280;3728;42.266;24.944;2023-04-05T09:09:19;99193.16;;;10.63;69.21
7376;BME280;3728;42.266;24.944;2023-04-05T09:11:47;99192.09;;;10.64;70.60
7376;BME280;3728;42.266;24.944;2023-04-05T09:14:16;99197.03;;;10.65;67.21
7376;BME280;3728;42.266;24.944;2023-04-05T09:16:45;99202.88;;;10.45;70.18
7376;BME280;3728;42.266;24.944;2023-04-05T09:19:13;99194.72;;;10.64;68.80
7376;BME280;3728;42.266;24.944;2023-04-05T09:21:59;99201.47;;;10.90;68.62
7376;BME280;3728;42.266;24.944;2023-04-05T09:27:17;99204.25;;;11.02;68.20
7376;BME280;3728;42.266;24.944;2023-04-05T09:29:52;99202.44;;;10.94;68.83
7376;BME280;3728;42.266;24.944;2023-04-05T09:32:25;99196.56;;;10.89;70.43
7376;BME280;3728;42.266;24.944;2023-04-05T09:34:59;99198.06;;;11.24;66.92
7376;BME280;3728;42.266;24.944;2023-04-05T09:37:30;99211.97;;;10.99;67.81
7376;BME280;3728;42.266;24.944;2023-04-05T09:40:02;99208.56;;;11.16;67.18
7376;BME280;3728;42.266;24.944;2023-04-05T09:42:42;99207.81;;;11.07;68.65
7376;BME280;3728;42.266;24.944;2023-04-05T09:45:14;99201.94;;;11.10;67.79
7376;BME280;3728;42.266;24.944;2023-04-05T09:47:54;99190.19;;;11.24;66.68
7376;BME280;3728;42.266;24.944;2023-04-05T09:50:23;99198.25;;;11.11;67.64
7376;BME280;3728;42.266;24.944;2023-04-05T09:53:13;99199.03;;;11.11;67.12
7376;BME280;3728;42.266;24.944;2023-04-05T09:55:47;99190.69;;;11.00;66.87
7376;BME280;3728;42.266;24.944;2023-04-05T09:58:18;99196.56;;;11.06;67.06
7376;BME280;3728;42.266;24.944;2023-04-05T10:00:48;99193.88;;;11.40;68.62
7376;BME280;3728;42.266;24.944;2023-04-05T10:03:46;99190.00;;;11.46;67.21
7376;BME280;3728;42.266;24.944;2023-04-05T10:06:15;99189.72;;;11.39;65.59
7376;BME280;3728;42.266;24.944;2023-04-05T10:08:45;99192.63;;;11.38;65.41
7376;BME280;3728;42.266;24.944;2023-04-05T10:11:17;99187.28;;;11.26;65.18
7376;BME280;3728;42.266;24.944;2023-04-05T10:13:45;99191.63;;;11.13;66.64
7376;BME280;3728;42.266;24.944;2023-04-05T10:16:18;99187.44;;;11.12;66.13
7376;BME280;3728;42.266;24.944;2023-04-05T10:18:51;99187.97;;;11.60;68.18
7376;BME280;3728;42.266;24.944;2023-04-05T10:21:27;99191.34;;;11.99;64.43
7376;BME280;3728;42.266;24.944;2023-04-05T10:24:45;99199.44;;;11.85;64.59
7376;BME280;3728;42.266;24.944;2023-04-05T10:27:29;99194.31;;;11.42;63.79
7376;BME280;3728;42.266;24.944;2023-04-05T10:30:25;99197.78;;;11.17;64.56
7376;BME280;3728;42.266;24.944;2023-04-05T10:38:35;99193.31;;;10.75;66.27
7376;BME280;3728;42.266;24.944;2023-04-05T10:41:17;99196.72;;;10.58;64.80
7376;BME280;3728;42.266;24.944;2023-04-05T10:43:45;99199.16;;;10.38;64.45
7376;BME280;3728;42.266;24.944;2023-04-05T10:46:19;99194.66;;;10.12;65.03
7376;BME280;3728;42.266;24.944;2023-04-05T10:51:59;99216.91;;;10.10;70.25
7376;BME280;3728;42.266;24.944;2023-04-05T10:54:31;99204.59;;;10.10;68.97
7376;BME280;3728;42.266;24.944;2023-04-05T10:57:02;99199.03;;;10.03;68.80
7376;BME280;3728;42.266;24.944;2023-04-05T10:59:40;99210.13;;;10.09;66.67
7376;BME280;3728;42.266;24.944;2023-04-05T11:02:09;99211.19;;;9.99;67.19
7376;BME280;3728;42.266;24.944;2023-04-05T11:04:38;99218.13;;;10.04;68.44
7376;BME280;3728;42.266;24.944;2023-04-05T11:09:49;99215.38;;;9.70;68.91
7376;BME280;3728;42.266;24.944;2023-04-05T11:12:18;99205.28;;;9.54;68.01
7376;BME280;3728;42.266;24.944;2023-04-05T11:14:46;99212.84;;;9.56;67.35
7376;BME280;3728;42.266;24.944;2023-04-05T11:17:24;99211.00;;;9.56;67.10
7376;BME280;3728;42.266;24.944;2023-04-05T11:20:06;99214.91;;;9.37;68.20
7376;BME280;3728;42.266;24.944;2023-04-05T11:22:38;99206.44;;;9.40;70.86
7376;BME280;3728;42.266;24.944;2023-04-05T11:25:05;99210.63;;;9.72;70.09
7376;BME280;3728;42.266;24.944;2023-04-05T11:27:34;99216.66;;;9.50;68.42
7376;BME280;3728;42.266;24.944;2023-04-05T11:30:04;99207.81;;;9.68;69.94
7376;BME280;3728;42.266;24.944;2023-04-05T11:35:12;99211.75;;;9.57;69.96
7376;BME280;3728;42.266;24.944;2023-04-05T11:45:32;99226.09;;;9.37;76.92
7376;BME280;3728;42.266;24.944;2023-04-05T11:50:34;99225.91;;;9.56;75.22
7376;BME280;3728;42.266;24.944;2023-04-05T11:53:13;99217.81;;;9.66;74.55
7376;BME280;3728;42.266;24.944;2023-04-05T11:55:46;99210.47;;;9.46;75.44
7376;BME280;3728;42.266;24.944;2023-04-05T11:58:22;99211.59;;;9.53;73.30
7376;BME280;3728;42.266;24.944;2023-04-05T12:01:02;99219.09;;;9.46;73.66
7376;BME280;3728;42.266;24.944;2023-04-05T12:03:30;99215.94;;;9.58;71.48
7376;BME280;3728;42.266;24.944;2023-04-05T12:06:03;99215.25;;;9.75;70.14
7376;BME280;3728;42.266;24.944;2023-04-05T12:08:45;99213.66;;;9.65;73.76
7376;BME280;3728;42.266;24.944;2023-04-05T12:11:26;99213.44;;;9.84;69.17
7376;BME280;3728;42.266;24.944;2023-04-05T12:13:58;99218.78;;;9.79;66.68
7376;BME280;3728;42.266;24.944;2023-04-05T12:16:27;99220.47;;;9.75;64.70
7376;BME280;3728;42.266;24.944;2023-04-05T12:18:58;99215.19;;;9.66;65.33
7376;BME280;3728;42.266;24.944;2023-04-05T12:21:26;99228.78;;;9.77;68.03
7376;BME280;3728;42.266;24.944;2023-04-05T12:23:54;99227.00;;;9.94;66.94
7376;BME280;3728;42.266;24.944;2023-04-05T12:26:22;99217.66;;;10.02;68.63
7376;BME280;3728;42.266;24.944;2023-04-05T12:28:57;99225.81;;;10.00;65.20
7376;BME280;3728;42.266;24.944;2023-04-05T12:31:36;99215.34;;;10.00;66.30
7376;BME280;3728;42.266;24.944;2023-04-05T12:34:08;99213.91;;;9.86;68.10
7376;BME280;3728;42.266;24.944;2023-04-05T12:36:38;99220.25;;;9.93;69.65
7376;BME280;3728;42.266;24.944;2023-04-05T12:39:09;99224.13;;;10.04;66.93
7376;BME280;3728;42.266;24.944;2023-04-05T12:41:37;99227.66;;;10.00;64.83
7376;BME280;3728;42.266;24.944;2023-04-05T12:44:10;99223.25;;;10.17;67.79
7376;BME280;3728;42.266;24.944;2023-04-05T12:49:13;99219.00;;;9.91;66.76
7376;BME280;3728;42.266;24.944;2023-04-05T12:51:47;99218.81;;;9.87;68.83
7376;BME280;3728;42.266;24.944;2023-04-05T12:54:20;99227.75;;;9.86;68.13
7376;BME280;3728;42.266;24.944;2023-04-05T12:56:49;99218.44;;;9.72;66.69
7376;BME280;3728;42.266;24.944;2023-04-05T12:59:19;99227.66;;;9.38;67.44
7376;BME280;3728;42.266;24.944;2023-04-05T13:01:47;99232.22;;;9.33;67.01
7376;BME280;3728;42.266;24.944;2023-04-05T13:04:18;99220.78;;;9.20;69.03
7376;BME280;3728;42.266;24.944;2023-04-05T13:06:48;99221.31;;;9.09;72.18
7376;BME280;3728;42.266;24.944;2023-04-05T13:09:19;99221.66;;;8.93;74.62
7376;BME280;3728;42.266;24.944;2023-04-05T13:11:47;99226.66;;;9.04;71.54
7376;BME280;3728;42.266;24.944;2023-04-05T13:14:14;99231.28;;;9.07;72.91
7376;BME280;3728;42.266;24.944;2023-04-05T13:16:43;99225.47;;;9.10;72.72
7376;BME280;3728;42.266;24.944;2023-04-05T13:19:10;99224.69;;;9.09;72.84
7376;BME280;3728;42.266;24.944;2023-04-05T13:21:38;99230.09;;;9.13;73.52
7376;BME280;3728;42.266;24.944;2023-04-05T13:24:06;99229.84;;;9.01;72.65
7376;BME280;3728;42.266;24.944;2023-04-05T13:26:37;99230.44;;;8.98;72.49
7376;BME280;3728;42.266;24.944;2023-04-05T13:29:04;99226.28;;;8.97;73.84
7376;BME280;3728;42.266;24.944;2023-04-05T13:31:32;99227.72;;;9.03;74.10
7376;BME280;3728;42.266;24.944;2023-04-05T13:34:00;99227.19;;;9.14;74.24
7376;BME280;3728;42.266;24.944;2023-04-05T13:36:27;99220.59;;;9.17;74.15
7376;BME280;3728;42.266;24.944;2023-04-05T13:38:55;99221.22;;;9.00;75.16
7376;BME280;3728;42.266;24.944;2023-04-05T13:41:22;99224.47;;;8.97;74.94
7376;BME280;3728;42.266;24.944;2023-04-05T13:43:50;99221.34;;;8.95;74.26
7376;BME280;3728;42.266;24.944;2023-04-05T13:46:17;99226.09;;;8.93;74.47
7376;BME280;3728;42.266;24.944;2023-04-05T13:48:45;99226.28;;;8.97;73.84
7376;BME280;3728;42.266;24.944;2023-04-05T13:51:12;99221.28;;;8.86;74.43
7376;BME280;3728;42.266;24.944;2023-04-05T13:53:40;99232.47;;;9.01;73.92
7376;BME280;3728;42.266;24.944;2023-04-05T13:56:07;99234.38;;;9.09;75.31
7376;BME280;3728;42.266;24.944;2023-04-05T13:58:35;99233.28;;;9.10;74.91
7376;BME280;3728;42.266;24.944;2023-04-05T14:01:02;99239.41;;;9.05;76.26
7376;BME280;3728;42.266;24.944;2023-04-05T14:03:30;99237.00;;;9.09;75.75
7376;BME280;3728;42.266;24.944;2023-04-05T14:05:57;99239.16;;;8.93;77.46
7376;BME280;3728;42.266;24.944;2023-04-05T14:08:25;99242.53;;;8.93;78.06
7376;BME280;3728;42.266;24.944;2023-04-05T14:10:52;99235.97;;;8.96;79.47
7376;BME280;3728;42.266;24.944;2023-04-05T14:13:21;99236.69;;;9.10;79.48
7376;BME280;3728;42.266;24.944;2023-04-05T14:15:49;99231.50;;;9.19;78.24
7376;BME280;3728;42.266;24.944;2023-04-05T14:18:16;99235.22;;;9.18;80.49
7376;BME280;3728;42.266;24.944;2023-04-05T14:20:44;99232.72;;;9.35;80.13